CYIK

Ivujivik Airport

Ivujivik, Quebec, Canada
METAR CYIK 172100Z 23008KT 15SM FEW040 BKN110 06/04 A2977 RMK SC1AC5 SC TR LST STFD OBS/NXT OBS 181200UTC SLP085
Observed Flight Rules
Aug-17 @ 21:00 UTC (12 hours ago) Visual Flight Rules
Wind Visibility Clouds
230° at 8 knots 15 miles
  • Few at 4,000' AGL
  • Broken at 11,000' AGL
Temperatures Readings
Current 6°C / 43°F
Dewpoint 4°C / 39°F
Humidity 87%
Altimeter 29.77" Hg
Pressure 1008.5 hPa
Elevation 42
METAR CYIK 172100Z 23008KT 15SM FEW040 BKN110 06/04 A2977 RMK SC1AC5 SC TR LST STFD OBS/NXT OBS 181200UTC SLP085
Observed Flight Rules
Aug-17 @ 21:00 UTC
(12 hours ago)
VFR
Wind Visibility
230° at 8 knots 15 miles
Clouds
  • Few at 4,000' AGL
  • Broken at 11,000' AGL
Temperature Dewpoint
6°C / 43°F 4°C / 39°F
Humidity Altimeter Pressure
87% 29.77" Hg 1008.5 hPa